Time;durP1;ratioP1;P1;durP2;ratioP2;P2;SDS_P1;SDS_P2;PMS_P1;PMS_P2;Temp;Humidity;BMP_temperature;BMP_pressure;BME280_temperature;BME280_humidity;BME280_pressure;Samples;Min_cycle;Max_cycle;Signal;HPM_P1;HPM_P2
2022/09/15 00:00:52;;;;;;;5.45;1.45;;;;;;;15.44;65.76;99243.47;2096830;28;20346;-70
2022/09/15 00:01:56;;;;;;;4.18;0.85;;;;;;;15.46;65.95;99252.06;2087954;28;20048;-71
2022/09/15 00:02:58;;;;;;;1.42;0.70;;;;;;;15.48;65.99;99244.38;2088413;28;20037;-70
2022/09/15 00:04:03;;;;;;;1.63;0.60;;;;;;;15.45;65.65;99245.84;2079848;28;20049;-71
2022/09/15 00:05:08;;;;;;;3.88;0.90;;;;;;;15.41;65.82;99249.56;2081674;28;20041;-70
2022/09/15 00:06:11;;;;;;;7.57;0.90;;;;;;;15.42;65.99;99235.69;2088013;28;20041;-70
2022/09/15 00:07:15;;;;;;;3.63;0.82;;;;;;;15.44;66.42;99241.53;2080563;28;20095;-70
2022/09/15 00:08:22;;;;;;;2.60;0.80;;;;;;;15.45;66.55;99236.94;2095962;28;20067;-70
2022/09/15 00:09:32;;;;;;;1.58;0.65;;;;;;;15.47;66.28;99237.38;2096205;28;20056;-69
2022/09/15 00:10:37;;;;;;;2.97;0.90;;;;;;;15.46;66.19;99230.38;2081118;28;20052;-71
2022/09/15 00:11:41;;;;;;;2.97;1.17;;;;;;;15.40;66.76;99243.38;2088070;28;20048;-71
2022/09/15 00:12:50;;;;;;;2.47;0.73;;;;;;;15.43;66.57;99234.56;2091782;28;20037;-71
2022/09/15 00:13:56;;;;;;;2.45;0.88;;;;;;;15.44;66.58;99230.72;2079634;28;20042;-71
2022/09/15 00:15:01;;;;;;;3.13;1.10;;;;;;;15.47;66.74;99238.16;2081589;28;20053;-71
2022/09/15 00:16:05;;;;;;;8.15;0.90;;;;;;;15.48;66.62;99238.97;2072043;28;20046;-71
2022/09/15 00:17:07;;;;;;;3.20;0.75;;;;;;;15.49;66.90;99230.47;2080549;28;20048;-70
2022/09/15 00:18:12;;;;;;;5.72;1.25;;;;;;;15.51;66.70;99238.28;2097153;28;20040;-70
2022/09/15 00:19:17;;;;;;;5.43;0.98;;;;;;;15.49;66.70;99235.91;2097298;28;20044;-70
2022/09/15 00:20:23;;;;;;;3.65;1.42;;;;;;;15.48;67.10;99231.63;2097759;28;20040;-70
2022/09/15 00:21:30;;;;;;;6.30;1.30;;;;;;;15.45;67.00;99236.94;2081951;28;20433;-71
2022/09/15 00:22:34;;;;;;;3.30;0.90;;;;;;;15.43;66.72;99231.06;2082141;28;20045;-71
2022/09/15 00:23:39;;;;;;;1.60;0.80;;;;;;;15.44;67.14;99229.94;2074385;28;20060;-69
2022/09/15 00:24:42;;;;;;;5.82;1.33;;;;;;;15.44;67.17;99228.00;2090384;28;20386;-71
2022/09/15 00:25:54;;;;;;;4.13;0.90;;;;;;;15.43;67.24;99225.66;2097389;28;20047;-71
2022/09/15 00:26:56;;;;;;;5.07;1.05;;;;;;;15.43;67.04;99228.38;2097987;28;20051;-70
2022/09/15 00:28:03;;;;;;;3.85;0.90;;;;;;;15.44;67.24;99233.41;2089302;28;20476;-70
2022/09/15 00:29:09;;;;;;;2.17;0.80;;;;;;;15.45;67.01;99228.81;2090634;28;20058;-70
2022/09/15 00:30:14;;;;;;;3.53;1.00;;;;;;;15.44;67.12;99222.59;2081435;28;20056;-70
2022/09/15 00:31:19;;;;;;;2.08;0.90;;;;;;;15.40;67.44;99221.72;2088103;28;20052;-71
2022/09/15 00:32:21;;;;;;;2.40;0.88;;;;;;;15.41;67.42;99222.50;2072704;28;20038;-71
2022/09/15 00:33:23;;;;;;;5.32;1.00;;;;;;;15.42;67.63;99230.28;2065503;28;20544;-72
2022/09/15 00:34:31;;;;;;;2.75;0.98;;;;;;;15.43;67.26;99221.03;2081586;28;20052;-71
2022/09/15 00:35:37;;;;;;;1.02;0.60;;;;;;;15.41;67.42;99223.28;2073224;28;20050;-70
2022/09/15 00:36:39;;;;;;;2.00;0.93;;;;;;;15.42;67.28;99222.16;2081924;28;20049;-71
2022/09/15 00:37:41;;;;;;;5.50;1.23;;;;;;;15.42;67.60;99213.25;2097659;28;20797;-71
2022/09/15 00:38:44;;;;;;;3.08;1.17;;;;;;;15.43;67.28;99221.03;2098394;28;20025;-71
2022/09/15 00:39:49;;;;;;;4.55;1.10;;;;;;;15.39;67.77;99220.13;2097712;28;20044;-71
2022/09/15 00:40:57;;;;;;;2.88;1.13;;;;;;;15.40;67.54;99219.00;2097562;28;20040;-72
2022/09/15 00:41:59;;;;;;;4.50;1.27;;;;;;;15.40;67.59;99220.91;2091747;28;20056;-71
2022/09/15 00:43:01;;;;;;;5.45;0.90;;;;;;;15.40;67.51;99216.28;2089139;28;20052;-71
2022/09/15 00:44:17;;;;;;;2.05;1.00;;;;;;;15.40;67.76;99213.59;2089582;28;20041;-71
2022/09/15 00:45:26;;;;;;;2.15;0.80;;;;;;;15.40;67.52;99213.59;2089227;28;20049;-71
2022/09/15 00:46:30;;;;;;;3.22;1.10;;;;;;;15.33;67.98;99209.88;2073404;28;20049;-71
2022/09/15 00:47:36;;;;;;;1.23;0.60;;;;;;;15.35;67.66;99208.41;2075846;28;20054;-71
2022/09/15 00:48:49;;;;;;;3.42;0.90;;;;;;;15.27;67.97;99206.63;2089838;28;20041;-71
2022/09/15 00:49:58;;;;;;;6.00;1.00;;;;;;;15.30;67.99;99205.94;2081971;28;20034;-71
2022/09/15 00:51:03;;;;;;;3.20;0.90;;;;;;;15.23;68.42;99205.75;2066911;28;20485;-71
2022/09/15 00:52:09;;;;;;;5.47;1.20;;;;;;;15.28;68.19;99208.19;2066079;28;20049;-72
2022/09/15 00:53:15;;;;;;;6.82;1.38;;;;;;;15.30;68.11;99208.66;2073945;28;20042;-72
2022/09/15 00:54:39;;;;;;;2.95;1.13;;;;;;;15.34;67.76;99208.75;2074069;28;20053;-71
2022/09/15 00:55:52;;;;;;;3.97;1.10;;;;;;;15.35;67.93;99208.41;2085340;28;20449;-72
2022/09/15 00:57:03;;;;;;;2.17;1.00;;;;;;;15.36;67.95;99201.88;2089990;28;20044;-72
2022/09/15 00:58:11;;;;;;;1.63;1.05;;;;;;;15.37;68.06;99208.84;2095563;28;20118;-71
2022/09/15 00:59:23;;;;;;;4.63;1.17;;;;;;;15.38;67.92;99198.78;2097651;28;20047;-71
2022/09/15 01:00:29;;;;;;;4.40;1.13;;;;;;;15.39;67.91;99197.69;2097324;28;20036;-72
2022/09/15 01:01:32;;;;;;;5.55;1.00;;;;;;;15.37;68.00;99206.13;2089711;28;20048;-70
2022/09/15 01:02:38;;;;;;;3.83;1.00;;;;;;;15.39;68.02;99203.88;2089806;28;20048;-72
2022/09/15 01:03:43;;;;;;;2.25;0.93;;;;;;;15.38;68.06;99202.28;2088995;28;20025;-71
2022/09/15 01:04:46;;;;;;;2.55;0.82;;;;;;;15.40;68.05;99200.03;2088768;28;20412;-71
2022/09/15 01:05:53;;;;;;;2.22;1.10;;;;;;;15.41;68.06;99188.06;2080706;28;20092;-71
2022/09/15 01:07:01;;;;;;;8.10;2.70;;;;;;;15.39;67.75;99195.75;2083482;28;20045;-70
2022/09/15 01:08:18;;;;;;;4.38;1.15;;;;;;;15.39;68.11;99193.06;2089312;28;20039;-72
2022/09/15 01:09:40;;;;;;;7.25;0.90;;;;;;;15.39;68.15;99197.69;2096043;28;20029;-71
2022/09/15 01:10:45;;;;;;;4.63;1.35;;;;;;;15.39;68.23;99200.41;2089247;28;20043;-71
2022/09/15 01:11:49;;;;;;;3.30;0.90;;;;;;;15.34;68.21;99198.69;2089953;28;20448;-71
2022/09/15 01:12:57;;;;;;;3.50;0.90;;;;;;;15.31;68.58;99196.69;2097559;28;20040;-71
2022/09/15 01:14:01;;;;;;;5.40;1.35;;;;;;;15.28;68.23;99191.94;2097451;28;20044;-71
2022/09/15 01:15:06;;;;;;;3.60;1.20;;;;;;;15.28;68.60;99189.25;2089161;28;20045;-71
2022/09/15 01:16:19;;;;;;;4.90;1.35;;;;;;;15.28;68.77;99189.25;2081248;28;20041;-72
2022/09/15 01:17:46;;;;;;;7.20;1.08;;;;;;;15.29;68.78;99188.13;2090743;28;20044;-72
2022/09/15 01:18:52;;;;;;;3.13;1.17;;;;;;;15.20;68.83;99184.78;2089072;28;20048;-72
2022/09/15 01:20:21;;;;;;;2.78;0.93;;;;;;;15.21;68.79;99189.03;2089224;28;20048;-71
2022/09/15 01:21:32;;;;;;;5.75;1.20;;;;;;;15.21;68.69;99183.63;2089154;28;20041;-72
2022/09/15 01:22:55;;;;;;;5.88;0.93;;;;;;;15.21;69.04;99180.91;2073891;28;20038;-72
2022/09/15 01:24:30;;;;;;;4.25;1.23;;;;;;;15.25;68.77;99181.81;2080006;28;20479;-72
2022/09/15 01:26:02;;;;;;;3.35;1.00;;;;;;;15.26;68.96;99184.19;2077317;28;20139;-72
2022/09/15 01:27:19;;;;;;;4.78;1.30;;;;;;;15.26;68.70;99180.69;2085635;28;20059;-72
2022/09/15 01:28:29;;;;;;;3.58;0.95;;;;;;;15.28;68.87;99175.69;2080888;28;20038;-72
2022/09/15 01:29:36;;;;;;;6.22;1.20;;;;;;;15.27;68.79;99176.84;2075128;28;20401;-72
2022/09/15 01:30:57;;;;;;;4.90;1.08;;;;;;;15.18;69.13;99182.38;2080874;28;20038;-72
2022/09/15 01:33:44;;;;;;;4.05;1.30;;;;;;;15.20;68.89;99174.72;2076789;28;20056;-72
2022/09/15 01:35:09;;;;;;;5.22;1.00;;;;;;;15.23;68.80;99179.44;2074054;28;20053;-72
2022/09/15 01:36:27;;;;;;;3.45;0.95;;;;;;;15.24;68.71;99172.13;2079257;28;20083;-70
2022/09/15 01:37:38;;;;;;;6.10;1.23;;;;;;;15.26;69.01;99169.84;2080881;28;20038;-71
2022/09/15 01:38:46;;;;;;;4.38;1.27;;;;;;;15.27;68.64;99168.72;2075527;28;20497;-71
2022/09/15 01:39:51;;;;;;;5.47;1.20;;;;;;;15.24;68.69;99167.47;2073443;28;20065;-71
2022/09/15 01:41:20;;;;;;;3.42;1.20;;;;;;;15.24;68.92;99169.41;2073692;28;20053;-71
2022/09/15 01:42:23;;;;;;;6.03;1.00;;;;;;;15.26;68.91;99164.44;2088950;28;20543;-70
2022/09/15 01:43:33;;;;;;;4.65;0.95;;;;;;;15.27;69.08;99157.88;2087344;28;20076;-71
2022/09/15 01:44:42;;;;;;;12.35;1.30;;;;;;;15.24;68.70;99164.00;2081642;28;20033;-71
2022/09/15 01:45:48;;;;;;;2.30;1.00;;;;;;;15.21;69.02;99161.97;2088868;28;20481;-72
2022/09/15 01:46:55;;;;;;;5.90;1.10;;;;;;;15.22;68.78;99158.13;2089154;28;20040;-71
2022/09/15 01:48:03;;;;;;;2.80;1.00;;;;;;;15.21;69.01;99159.25;2089179;28;20466;-71
2022/09/15 01:49:09;;;;;;;4.32;1.00;;;;;;;15.22;68.86;99158.91;2089680;28;20045;-71
2022/09/15 01:50:17;;;;;;;5.75;1.27;;;;;;;15.23;68.68;99157.00;2089325;28;20037;-71
2022/09/15 01:51:21;;;;;;;2.50;0.93;;;;;;;15.20;68.64;99153.06;2090145;28;20045;-71
2022/09/15 01:52:26;;;;;;;5.80;1.27;;;;;;;15.13;69.10;99158.28;2096877;28;20067;-71
2022/09/15 01:53:35;;;;;;;6.45;1.17;;;;;;;15.15;69.33;99163.34;2097767;28;20059;-71
2022/09/15 01:54:47;;;;;;;4.07;0.98;;;;;;;15.05;69.15;99162.69;2090702;28;20036;-71
2022/09/15 01:55:52;;;;;;;5.47;1.20;;;;;;;15.08;69.46;99169.34;2091231;28;20052;-72
2022/09/15 01:56:57;;;;;;;4.85;1.10;;;;;;;15.01;69.43;99164.50;2105263;28;20048;-72
2022/09/15 01:58:00;;;;;;;3.88;0.98;;;;;;;15.00;69.47;99165.63;2090142;28;20037;-71
2022/09/15 01:59:08;;;;;;;4.88;1.20;;;;;;;15.03;69.43;99159.53;2064448;28;20030;-71
2022/09/15 02:00:13;;;;;;;7.70;1.02;;;;;;;15.02;69.24;99157.94;2067479;28;20034;-71
2022/09/15 02:01:43;;;;;;;4.20;1.23;;;;;;;15.04;69.56;99152.22;2074174;28;20041;-71
2022/09/15 02:02:57;;;;;;;10.45;1.40;;;;;;;15.01;69.51;99153.69;2097107;28;20420;-71
2022/09/15 02:04:10;;;;;;;5.03;1.10;;;;;;;15.03;69.40;99156.81;2095021;28;20047;-71
2022/09/15 02:05:24;;;;;;;4.45;1.20;;;;;;;15.06;69.18;99164.25;2096868;28;20499;-71
2022/09/15 02:06:51;;;;;;;2.10;0.93;;;;;;;15.10;69.18;99155.44;2093235;28;20268;-71
2022/09/15 02:08:11;;;;;;;5.90;1.90;;;;;;;15.06;68.99;99139.88;2092048;28;20032;-70
2022/09/15 02:09:27;;;;;;;5.45;1.20;;;;;;;15.06;69.09;99153.41;2088497;28;20540;-70
2022/09/15 02:10:52;;;;;;;3.20;1.00;;;;;;;15.07;69.16;99154.22;2090830;28;20405;-71
2022/09/15 02:12:11;;;;;;;8.80;1.40;;;;;;;15.03;69.02;99154.09;2088627;28;20032;-70
2022/09/15 02:13:22;;;;;;;3.13;0.90;;;;;;;15.02;69.28;99146.34;2082822;28;20041;-70
2022/09/15 02:14:41;;;;;;;3.10;0.70;;;;;;;15.00;69.17;99143.97;2081596;28;20057;-69
2022/09/15 02:16:18;;;;;;;6.60;1.10;;;;;;;14.98;69.30;99150.88;2082960;28;20516;-70
2022/09/15 02:17:21;;;;;;;6.25;1.10;;;;;;;14.97;69.47;99149.28;2077056;28;20567;-69
2022/09/15 02:18:40;;;;;;;2.58;1.10;;;;;;;14.90;69.47;99152.56;2064687;28;20483;-70
2022/09/15 02:19:50;;;;;;;2.83;0.90;;;;;;;14.86;69.63;99145.47;2076945;28;20513;-70
2022/09/15 02:21:05;;;;;;;4.32;0.95;;;;;;;14.82;69.49;99139.97;2081527;28;20453;-70
2022/09/15 02:22:26;;;;;;;5.65;1.42;;;;;;;14.80;69.96;99142.22;2082403;28;20037;-71
2022/09/15 02:23:34;;;;;;;8.05;1.05;;;;;;;14.81;69.56;99141.06;2066572;28;20041;-70
2022/09/15 02:24:43;;;;;;;3.30;1.10;;;;;;;14.80;69.74;99132.19;2075268;28;20049;-70
2022/09/15 02:25:52;;;;;;;4.78;1.08;;;;;;;14.79;69.78;99149.53;2089336;28;20055;-70
2022/09/15 02:26:59;;;;;;;6.50;1.25;;;;;;;14.78;69.80;99136.34;2081717;28;20045;-71
2022/09/15 02:28:07;;;;;;;2.70;0.90;;;;;;;14.75;69.92;99137.03;2081808;28;20424;-70
2022/09/15 02:29:14;;;;;;;4.95;1.27;;;;;;;14.76;69.90;99144.03;2096563;28;20048;-70
2022/09/15 02:30:20;;;;;;;2.45;0.88;;;;;;;14.76;69.82;99150.22;2088683;28;20044;-70
2022/09/15 02:31:24;;;;;;;4.20;1.15;;;;;;;14.78;69.89;99141.75;2079131;28;20037;-70
2022/09/15 02:32:33;;;;;;;3.58;0.90;;;;;;;14.77;70.19;99151.78;2087656;28;20511;-70
2022/09/15 02:33:47;;;;;;;6.18;1.17;;;;;;;14.62;70.35;99141.66;2089358;28;20116;-70
2022/09/15 02:34:56;;;;;;;2.83;1.00;;;;;;;14.63;70.45;99139.75;2099043;28;20415;-71
2022/09/15 02:36:06;;;;;;;3.80;1.25;;;;;;;14.63;70.48;99140.56;2088548;28;20049;-72
2022/09/15 02:37:10;;;;;;;3.67;1.08;;;;;;;14.62;70.58;99135.47;2073593;28;20041;-72
2022/09/15 02:38:20;;;;;;;3.83;1.02;;;;;;;14.60;70.40;99138.53;2073442;28;20053;-71
2022/09/15 02:39:33;;;;;;;3.63;1.35;;;;;;;14.56;70.42;99134.91;2086500;28;20049;-70
2022/09/15 02:40:40;;;;;;;5.78;1.48;;;;;;;14.51;70.73;99129.75;2088331;28;20048;-71
2022/09/15 02:41:42;;;;;;;3.28;1.00;;;;;;;14.52;70.46;99134.81;2088929;28;20388;-71
2022/09/15 02:42:56;;;;;;;7.90;1.13;;;;;;;14.50;70.71;99125.41;2097010;28;20036;-72
2022/09/15 02:43:58;;;;;;;8.45;1.00;;;;;;;14.50;70.56;99128.94;2071852;28;20038;-72
2022/09/15 02:45:00;;;;;;;3.38;1.38;;;;;;;14.49;70.85;99130.03;2061931;28;20042;-72
2022/09/15 02:46:03;;;;;;;2.97;1.08;;;;;;;14.44;71.09;99132.19;2072299;28;20046;-71
2022/09/15 02:47:07;;;;;;;5.57;1.05;;;;;;;14.46;70.94;99129.94;2080232;28;20116;-71
2022/09/15 02:48:11;;;;;;;4.07;1.08;;;;;;;14.46;70.92;99127.22;2079982;28;20049;-72
2022/09/15 02:49:21;;;;;;;4.07;1.33;;;;;;;14.45;71.13;99134.56;2088312;28;20048;-72
2022/09/15 02:50:25;;;;;;;3.60;1.35;;;;;;;14.47;70.68;99132.31;2084571;28;20033;-72
2022/09/15 02:51:33;;;;;;;3.28;1.23;;;;;;;14.45;71.28;99139.19;2080344;28;20052;-72
2022/09/15 02:52:36;;;;;;;4.70;1.17;;;;;;;14.44;71.22;99133.00;2082030;28;20056;-72
2022/09/15 02:53:43;;;;;;;3.63;1.20;;;;;;;14.46;71.12;99135.34;2088220;28;20037;-72
2022/09/15 02:54:46;;;;;;;3.17;1.38;;;;;;;14.42;70.89;99129.03;2072691;28;20567;-72
2022/09/15 02:55:50;;;;;;;6.38;1.30;;;;;;;14.43;71.12;99125.97;2080269;28;20405;-71
2022/09/15 02:56:54;;;;;;;3.13;1.10;;;;;;;14.39;71.40;99127.78;2064061;28;20060;-71
2022/09/15 02:58:01;;;;;;;3.78;0.98;;;;;;;14.40;71.25;99134.78;2072118;28;20552;-71
2022/09/15 02:59:05;;;;;;;3.83;1.10;;;;;;;14.39;71.11;99130.50;2072609;28;20046;-70
2022/09/15 03:00:12;;;;;;;3.85;1.40;;;;;;;14.36;71.26;99125.78;2064769;28;20058;-71
2022/09/15 03:01:19;;;;;;;6.90;1.17;;;;;;;14.38;71.03;99128.94;2072833;28;20811;-71
2022/09/15 03:02:24;;;;;;;3.97;1.02;;;;;;;14.34;71.33;99123.41;2082304;28;20052;-70
2022/09/15 03:03:29;;;;;;;6.82;1.20;;;;;;;14.36;71.09;99129.25;2088221;28;20059;-72
2022/09/15 03:04:34;;;;;;;6.32;1.35;;;;;;;14.33;71.26;99124.53;2081005;28;20040;-71
2022/09/15 03:05:42;;;;;;;3.75;1.10;;;;;;;14.34;71.20;99122.59;2087804;28;20424;-71
2022/09/15 03:06:45;;;;;;;4.85;1.23;;;;;;;14.32;71.45;99120.25;2071900;28;20046;-71
2022/09/15 03:07:50;;;;;;;3.55;1.02;;;;;;;14.30;71.57;99127.13;2056340;28;20038;-72
2022/09/15 03:09:00;;;;;;;3.55;1.13;;;;;;;14.22;71.47;99122.59;2079291;28;20065;-72
2022/09/15 03:10:07;;;;;;;2.20;0.90;;;;;;;14.24;71.52;99118.44;2089057;28;20036;-71
2022/09/15 03:11:11;;;;;;;6.82;1.17;;;;;;;14.25;71.59;99124.63;2088263;28;20036;-71
2022/09/15 03:12:18;;;;;;;3.50;1.00;;;;;;;14.27;71.44;99119.69;2081018;28;20045;-71
2022/09/15 03:13:20;;;;;;;3.45;1.08;;;;;;;14.29;71.50;99114.75;2080422;28;20037;-72
2022/09/15 03:14:22;;;;;;;1.48;0.90;;;;;;;14.29;71.53;99122.84;2072072;28;20064;-71
2022/09/15 03:15:25;;;;;;;6.40;1.40;;;;;;;14.27;71.53;99116.97;2064052;28;20438;-71
2022/09/15 03:16:31;;;;;;;2.65;1.10;;;;;;;14.27;71.77;99108.88;2074360;28;20038;-71
2022/09/15 03:17:34;;;;;;;2.60;0.90;;;;;;;14.28;71.67;99118.56;2063563;28;20061;-72
2022/09/15 03:18:37;;;;;;;5.55;1.85;;;;;;;14.25;71.82;99108.41;2064529;28;20037;-71
2022/09/15 03:19:45;;;;;;;3.17;1.10;;;;;;;14.26;71.94;99118.13;2072313;28;20041;-71
2022/09/15 03:20:47;;;;;;;3.90;0.90;;;;;;;14.26;71.86;99110.00;2080108;28;20040;-72
2022/09/15 03:21:53;;;;;;;4.72;1.13;;;;;;;14.28;71.97;99107.75;2080125;28;20036;-71
2022/09/15 03:22:57;;;;;;;3.95;1.05;;;;;;;14.28;71.66;99102.34;2080042;28;20153;-71
2022/09/15 03:24:05;;;;;;;3.78;1.30;;;;;;;14.20;71.97;99106.72;2081513;28;20508;-71
2022/09/15 03:25:10;;;;;;;3.03;1.08;;;;;;;14.14;72.17;99108.09;2087323;28;20033;-72
2022/09/15 03:26:14;;;;;;;3.63;1.30;;;;;;;14.14;72.39;99103.47;2080066;28;20078;-70
2022/09/15 03:27:19;;;;;;;5.28;1.10;;;;;;;14.14;72.05;99102.69;2071564;28;20033;-71
2022/09/15 03:28:25;;;;;;;6.88;1.17;;;;;;;14.11;72.29;99103.34;2065476;28;20422;-72
2022/09/15 03:29:36;;;;;;;7.00;1.10;;;;;;;14.12;72.24;99105.72;2079439;28;20049;-72
2022/09/15 03:30:41;;;;;;;4.32;0.98;;;;;;;14.14;72.53;99108.88;2085070;28;20033;-71
2022/09/15 03:31:49;;;;;;;3.97;1.13;;;;;;;14.13;72.51;99101.91;2083568;28;20389;-71
2022/09/15 03:32:51;;;;;;;2.10;0.93;;;;;;;14.10;72.46;99107.19;2077024;28;20350;-72
2022/09/15 03:33:56;;;;;;;2.35;0.95;;;;;;;14.06;72.67;99100.84;2072024;28;20045;-72
2022/09/15 03:34:58;;;;;;;6.35;1.40;;;;;;;14.10;72.79;99094.47;2080704;28;20053;-71
2022/09/15 03:36:03;;;;;;;6.93;1.35;;;;;;;14.14;72.74;99097.28;2087921;28;20047;-72
2022/09/15 03:37:07;;;;;;;4.70;1.25;;;;;;;14.16;72.93;99092.31;2080533;28;20061;-71
2022/09/15 03:38:10;;;;;;;3.13;0.90;;;;;;;14.20;72.51;99095.13;2071889;28;20061;-70
2022/09/15 03:39:15;;;;;;;9.35;1.52;;;;;;;14.25;72.66;99097.59;2088841;28;20037;-72
2022/09/15 03:40:17;;;;;;;4.05;1.10;;;;;;;14.20;72.64;99097.84;2096452;28;20043;-72
2022/09/15 03:41:20;;;;;;;6.93;1.33;;;;;;;14.23;72.80;99099.88;2096116;28;20056;-71
2022/09/15 03:42:30;;;;;;;3.13;1.25;;;;;;;14.26;72.79;99093.78;2088381;28;20045;-71
2022/09/15 03:43:31;;;;;;;3.08;0.98;;;;;;;14.20;72.89;99100.53;2097948;28;20048;-71
2022/09/15 03:44:35;;;;;;;5.50;1.17;;;;;;;14.14;73.21;99100.75;2088103;28;20033;-71
2022/09/15 03:45:39;;;;;;;7.57;1.83;;;;;;;14.19;73.15;99109.78;2081009;28;20037;-71
2022/09/15 03:46:44;;;;;;;5.22;1.00;;;;;;;14.13;73.23;99093.78;2082202;28;20037;-72
2022/09/15 03:47:49;;;;;;;3.70;1.13;;;;;;;14.19;73.24;99093.56;2072541;28;20808;-71
2022/09/15 03:48:51;;;;;;;7.68;1.40;;;;;;;14.20;73.26;99100.53;2087639;28;20048;-71
2022/09/15 03:49:56;;;;;;;4.65;1.52;;;;;;;14.12;73.36;99094.91;2088065;28;20028;-71
2022/09/15 03:51:02;;;;;;;4.05;1.02;;;;;;;14.12;73.61;99094.91;2088869;28;20116;-72
2022/09/15 03:52:08;;;;;;;3.50;0.85;;;;;;;14.10;73.71;99090.97;2080953;28;20037;-71
2022/09/15 03:53:16;;;;;;;4.57;1.13;;;;;;;14.07;73.87;99087.03;2083582;28;20057;-71
2022/09/15 03:54:18;;;;;;;9.25;1.67;;;;;;;14.10;73.76;99094.47;2099154;28;20029;-71
2022/09/15 03:55:21;;;;;;;2.60;1.10;;;;;;;14.11;73.77;99098.72;2105292;28;20043;-71
2022/09/15 03:56:32;;;;;;;7.82;1.10;;;;;;;14.13;73.92;99091.09;2090105;28;20480;-70
2022/09/15 03:57:37;;;;;;;7.93;1.13;;;;;;;14.16;73.87;99091.53;2087308;28;20033;-73
2022/09/15 03:58:42;;;;;;;2.17;0.90;;;;;;;14.20;73.58;99090.53;2089876;28;20040;-73
2022/09/15 03:59:46;;;;;;;5.63;1.20;;;;;;;14.22;73.61;99092.88;2081515;28;20048;-73
2022/09/15 04:00:55;;;;;;;5.05;1.77;;;;;;;14.25;73.62;99098.41;2083716;28;20038;-73
2022/09/15 04:02:00;;;;;;;2.60;1.00;;;;;;;14.27;73.51;99096.13;2089612;28;20374;-73
2022/09/15 04:03:02;;;;;;;7.47;1.60;;;;;;;14.26;73.43;99088.38;2090146;28;20041;-73
2022/09/15 04:04:06;;;;;;;2.42;1.10;;;;;;;14.28;73.56;99091.50;2081428;28;20041;-71
2022/09/15 04:05:12;;;;;;;4.40;1.60;;;;;;;14.31;73.30;99096.25;2082476;28;20033;-71
2022/09/15 04:06:17;;;;;;;4.55;0.98;;;;;;;14.25;73.74;99086.78;2089792;28;20044;-71
2022/09/15 04:07:20;;;;;;;3.15;1.00;;;;;;;14.29;73.46;99082.28;2090932;28;20051;-74
2022/09/15 04:08:23;;;;;;;2.53;1.00;;;;;;;14.27;73.62;99089.94;2096372;28;20060;-73
2022/09/15 04:09:25;;;;;;;3.08;1.17;;;;;;;14.27;73.76;99084.53;2089845;28;20048;-74
2022/09/15 04:10:28;;;;;;;3.78;1.08;;;;;;;14.29;73.46;99093.09;2089858;28;20045;-74
2022/09/15 04:11:31;;;;;;;5.03;1.58;;;;;;;14.31;73.32;99091.66;2089716;28;20045;-74
2022/09/15 04:12:37;;;;;;;7.57;1.20;;;;;;;14.29;73.68;99088.50;2098642;28;20044;-73
2022/09/15 04:13:40;;;;;;;3.30;1.05;;;;;;;14.29;73.44;99083.09;2089673;28;20070;-74
2022/09/15 04:14:43;;;;;;;2.33;0.95;;;;;;;14.28;73.60;99086.91;2081139;28;20049;-74
2022/09/15 04:15:46;;;;;;;3.55;0.85;;;;;;;14.28;73.74;99078.81;2089984;28;20041;-75
2022/09/15 04:16:51;;;;;;;6.90;1.33;;;;;;;14.27;73.82;99087.25;2075081;28;20049;-72
2022/09/15 04:17:53;;;;;;;4.45;1.10;;;;;;;14.22;73.99;99084.75;2066043;28;20045;-74
2022/09/15 04:18:58;;;;;;;3.72;1.00;;;;;;;14.18;74.01;99086.56;2081049;28;20041;-74
2022/09/15 04:20:08;;;;;;;4.78;1.67;;;;;;;14.23;74.13;99083.66;2075272;28;20148;-73
2022/09/15 04:21:12;;;;;;;3.65;0.90;;;;;;;14.23;73.88;99089.06;2082237;28;20049;-73
2022/09/15 04:22:14;;;;;;;3.53;1.30;;;;;;;14.25;73.97;99089.50;2088768;28;20037;-74
2022/09/15 04:23:19;;;;;;;5.13;1.05;;;;;;;14.24;74.04;99093.31;2096371;28;20048;-73
2022/09/15 04:24:25;;;;;;;2.63;1.17;;;;;;;14.25;74.18;99086.78;2096732;28;20036;-71
2022/09/15 04:25:32;;;;;;;4.32;1.23;;;;;;;14.28;74.54;99080.69;2097124;28;20036;-72
2022/09/15 04:26:38;;;;;;;5.88;1.17;;;;;;;14.27;74.14;99084.53;2096783;28;20044;-73
2022/09/15 04:27:45;;;;;;;5.13;1.20;;;;;;;14.27;74.17;99082.63;2097239;28;20036;-73
2022/09/15 04:28:50;;;;;;;3.25;1.00;;;;;;;14.33;74.45;99080.47;2097204;28;20040;-72
2022/09/15 04:30:02;;;;;;;3.88;0.80;;;;;;;14.31;74.72;99088.94;2097336;28;20546;-78
2022/09/15 04:31:07;;;;;;;5.78;1.63;;;;;;;14.35;74.77;99084.44;2088180;28;20044;-73
2022/09/15 04:32:13;;;;;;;5.35;1.30;;;;;;;14.38;74.71;99086.47;2086214;28;20053;-73
2022/09/15 04:33:17;;;;;;;6.57;1.58;;;;;;;14.35;74.70;99089.06;2096107;28;20040;-72
2022/09/15 04:34:19;;;;;;;2.85;1.63;;;;;;;14.34;74.73;99079.34;2088620;28;20037;-75
2022/09/15 04:35:22;;;;;;;2.15;0.90;;;;;;;14.35;74.81;99081.72;2095674;28;20044;-74
2022/09/15 04:36:27;;;;;;;4.00;0.90;;;;;;;14.41;75.02;99076.06;2080070;28;20048;-74
2022/09/15 04:37:32;;;;;;;2.75;1.20;;;;;;;14.42;74.98;99075.75;2081772;28;20087;-74
2022/09/15 04:38:35;;;;;;;3.53;1.25;;;;;;;14.41;74.78;99076.06;2080440;28;20042;-74
2022/09/15 04:39:40;;;;;;;4.07;1.13;;;;;;;14.38;75.08;99070.22;2081450;28;20033;-75
2022/09/15 04:40:48;;;;;;;3.25;1.20;;;;;;;14.37;75.19;99079.47;2096667;28;20035;-74
2022/09/15 04:41:55;;;;;;;3.53;1.10;;;;;;;14.37;75.08;99084.06;2077719;28;20389;-73
2022/09/15 04:42:57;;;;;;;3.50;1.10;;;;;;;14.38;75.51;99080.25;2081644;28;20084;-72
2022/09/15 04:44:02;;;;;;;4.45;1.15;;;;;;;14.35;75.41;99070.91;2088071;28;20044;-72
2022/09/15 04:45:07;;;;;;;2.17;0.90;;;;;;;14.40;75.15;99072.59;2080548;28;20037;-74
2022/09/15 04:46:15;;;;;;;7.43;1.48;;;;;;;14.45;74.85;99080.47;2072713;28;20054;-73
2022/09/15 04:47:20;;;;;;;4.18;1.30;;;;;;;14.51;75.02;99081.84;2082704;28;20509;-74
2022/09/15 04:48:24;;;;;;;6.75;0.95;;;;;;;14.52;75.03;99075.31;2088350;28;20040;-72
2022/09/15 04:49:30;;;;;;;4.20;1.08;;;;;;;14.52;75.33;99072.59;2089012;28;20037;-72
2022/09/15 04:50:34;;;;;;;2.67;0.95;;;;;;;14.56;75.09;99070.81;2096462;28;20421;-72
2022/09/15 04:51:38;;;;;;;4.18;1.20;;;;;;;14.56;74.92;99068.09;2096211;28;20115;-72
2022/09/15 04:52:40;;;;;;;4.97;1.13;;;;;;;14.58;75.05;99067.75;2096432;28;20040;-72
2022/09/15 04:53:43;;;;;;;4.25;1.05;;;;;;;14.60;75.30;99071.69;2095853;28;20480;-72
2022/09/15 04:54:48;;;;;;;5.10;1.40;;;;;;;14.59;75.56;99069.31;2099662;28;20561;-73
2022/09/15 04:55:51;;;;;;;4.50;1.30;;;;;;;14.58;76.21;99068.53;2104671;28;20043;-75
2022/09/15 04:56:54;;;;;;;4.35;1.30;;;;;;;14.56;76.30;99072.69;2104170;28;20044;-79
2022/09/15 04:58:01;;;;;;;8.18;1.70;;;;;;;14.65;76.55;99073.34;2091135;28;20041;-72
2022/09/15 04:59:03;;;;;;;4.20;1.10;;;;;;;14.75;76.04;99072.09;2089630;28;20041;-72
2022/09/15 05:00:13;;;;;;;5.57;1.10;;;;;;;14.77;75.74;99072.56;2087734;28;20041;-72
2022/09/15 05:01:25;;;;;;;4.22;1.00;;;;;;;14.75;76.00;99067.50;2078351;28;20378;-71
2022/09/15 05:02:27;;;;;;;3.13;1.50;;;;;;;14.73;76.30;99060.84;2077600;28;20025;-70
2022/09/15 05:03:35;;;;;;;3.42;1.00;;;;;;;14.79;76.09;99056.78;2083369;28;20040;-72
2022/09/15 05:04:37;;;;;;;4.20;1.30;;;;;;;14.83;76.08;99063.06;2087635;28;20044;-73
2022/09/15 05:05:42;;;;;;;9.80;1.58;;;;;;;14.86;75.76;99065.09;2085350;28;20041;-69
2022/09/15 05:06:51;;;;;;;5.07;1.48;;;;;;;14.80;75.67;99056.41;2090969;28;20029;-70
2022/09/15 05:07:59;;;;;;;9.60;1.42;;;;;;;14.81;75.88;99057.19;2093796;28;20707;-73
2022/09/15 05:09:03;;;;;;;4.85;1.30;;;;;;;14.80;75.78;99059.13;2087619;28;20049;-71
2022/09/15 05:10:09;;;;;;;5.90;0.95;;;;;;;14.82;75.31;99062.28;2083861;28;20049;-70
2022/09/15 05:11:15;;;;;;;1.73;1.08;;;;;;;14.86;75.38;99056.19;2083696;28;20041;-70
2022/09/15 05:12:23;;;;;;;2.33;1.00;;;;;;;14.82;75.41;99050.69;2082001;28;20524;-70
2022/09/15 05:13:30;;;;;;;5.22;1.23;;;;;;;14.80;75.22;99053.72;2091400;28;20041;-70
2022/09/15 05:14:33;;;;;;;3.22;1.05;;;;;;;14.85;75.27;99041.88;2092160;28;20048;-70
2022/09/15 05:15:38;;;;;;;3.92;1.15;;;;;;;14.87;74.98;99042.28;2091148;28;20048;-70
2022/09/15 05:16:48;;;;;;;3.40;0.93;;;;;;;14.94;75.01;99042.53;2091209;28;21121;-71
2022/09/15 05:17:50;;;;;;;7.13;1.30;;;;;;;15.00;74.63;99035.69;2091103;28;20647;-71
2022/09/15 05:18:59;;;;;;;7.60;1.10;;;;;;;15.06;74.28;99034.31;2093796;28;20571;-70